Time;durP1;ratioP1;P1;durP2;ratioP2;P2;SDS_P1;SDS_P2;PMS_P1;PMS_P2;Temp;Humidity;BMP_temperature;BMP_pressure;BME280_temperature;BME280_humidity;BME280_pressure;Samples;Min_cycle;Max_cycle;Signal;HPM_P1;HPM_P2
2022/05/04 00:03:24;;;;;;;6.97;5.65;;;;;;;9.58;100.00;100051.81;4325610;26;20483;-68
2022/05/04 00:05:50;;;;;;;7.03;6.00;;;;;;;9.67;100.00;100051.59;4282685;28;10000659;-68
2022/05/04 00:08:15;;;;;;;8.43;7.20;;;;;;;9.63;100.00;100093.16;4971484;28;20058;-68
2022/05/04 00:10:41;;;;;;;8.68;6.93;;;;;;;9.91;100.00;100104.34;4971397;28;20037;-68
2022/05/04 00:13:06;;;;;;;7.97;6.93;;;;;;;9.73;100.00;100048.91;4971016;28;20484;-68
2022/05/04 00:15:32;;;;;;;7.13;6.32;;;;;;;10.19;100.00;100091.84;4971456;28;20042;-67
2022/05/04 00:17:57;;;;;;;8.68;6.20;;;;;;;9.81;100.00;100038.59;4971520;28;20185;-68
2022/05/04 00:20:22;;;;;;;6.18;5.55;;;;;;;10.20;100.00;100068.13;4971302;28;20031;-68
2022/05/04 00:22:48;;;;;;;7.15;5.90;;;;;;;10.27;100.00;100095.03;4971458;28;20113;-68
2022/05/04 00:25:13;;;;;;;7.90;7.07;;;;;;;10.09;100.00;100100.53;4971441;28;20022;-68
2022/05/04 00:27:39;;;;;;;9.68;7.70;;;;;;;10.04;100.00;100100.66;4970826;28;20117;-68
2022/05/04 00:30:05;;;;;;;10.02;8.10;;;;;;;9.78;100.00;100072.50;4971450;28;20130;-68
2022/05/04 00:32:32;;;;;;;9.93;8.10;;;;;;;9.73;100.00;100120.00;4971227;28;20027;-68
2022/05/04 00:34:58;;;;;;;8.48;7.60;;;;;;;9.83;100.00;100108.78;4971106;28;20432;-68
2022/05/04 00:37:23;;;;;;;8.10;7.22;;;;;;;9.36;100.00;100081.91;4971272;28;20073;-67
2022/05/04 00:39:49;;;;;;;8.75;7.13;;;;;;;9.81;100.00;100114.75;4971313;28;20027;-68
2022/05/04 00:42:19;;;;;;;7.70;6.85;;;;;;;9.85;100.00;100117.19;4970878;28;20031;-68
2022/05/04 00:44:47;;;;;;;8.13;6.82;;;;;;;9.40;100.00;100052.25;4972927;28;20213;-68
2022/05/04 00:47:13;;;;;;;8.38;7.60;;;;;;;9.62;100.00;100129.56;4974634;28;20030;-68
2022/05/04 00:49:40;;;;;;;8.93;7.72;;;;;;;8.84;100.00;100014.56;4973352;28;20113;-68
2022/05/04 00:52:06;;;;;;;7.88;7.07;;;;;;;9.39;100.00;100098.75;4974520;28;20465;-68
2022/05/04 00:54:34;;;;;;;9.90;7.15;;;;;;;9.38;100.00;100118.25;4974100;28;20094;-67
2022/05/04 00:57:00;;;;;;;8.15;7.35;;;;;;;9.67;100.00;100120.13;4974647;28;20035;-68
2022/05/04 00:59:26;;;;;;;8.80;7.07;;;;;;;9.65;100.00;100073.66;4974026;28;20037;-68
2022/05/04 01:01:52;;;;;;;8.60;7.40;;;;;;;9.40;100.00;100072.53;4974115;28;20872;-68
2022/05/04 01:04:18;;;;;;;8.95;7.72;;;;;;;9.48;100.00;100073.19;4974445;28;20082;-68
2022/05/04 01:06:46;;;;;;;7.95;7.15;;;;;;;9.78;100.00;100125.81;4974215;28;20409;-68
2022/05/04 01:09:12;;;;;;;8.32;7.40;;;;;;;9.48;100.00;100065.59;4973925;28;20409;-68
2022/05/04 01:11:37;;;;;;;8.52;7.55;;;;;;;9.56;100.00;100117.84;4974299;28;20412;-68
2022/05/04 01:14:14;;;;;;;9.57;7.07;;;;;;;9.27;100.00;100092.25;4973894;28;20036;-68
2022/05/04 01:16:43;;;;;;;8.02;6.85;;;;;;;9.66;100.00;100117.63;4974039;28;20037;-68
2022/05/04 01:19:09;;;;;;;9.70;6.97;;;;;;;9.56;100.00;100077.25;4974214;28;20034;-68
2022/05/04 01:21:35;;;;;;;10.05;6.57;;;;;;;9.71;100.00;100113.28;4973909;28;20497;-68
2022/05/04 01:24:01;;;;;;;7.97;5.93;;;;;;;9.79;100.00;100119.88;4972729;28;20110;-67
2022/05/04 01:26:27;;;;;;;8.80;5.88;;;;;;;9.17;100.00;100065.41;4973917;28;20058;-68
2022/05/04 01:28:52;;;;;;;6.45;5.85;;;;;;;9.41;100.00;100135.06;4973990;28;20066;-68
2022/05/04 01:31:18;;;;;;;6.30;5.28;;;;;;;9.35;100.00;100094.63;4973904;28;20029;-68
2022/05/04 01:33:44;;;;;;;6.82;5.60;;;;;;;9.25;100.00;100093.16;4973729;28;20042;-67
2022/05/04 01:36:10;;;;;;;5.97;5.30;;;;;;;9.60;100.00;100144.84;4973968;28;20038;-68
2022/05/04 01:38:36;;;;;;;6.28;5.30;;;;;;;9.74;100.00;100146.22;4973392;28;20501;-68
2022/05/04 01:41:02;;;;;;;6.28;5.68;;;;;;;9.46;100.00;100113.00;4972420;28;20174;-68
2022/05/04 01:43:28;;;;;;;6.43;5.30;;;;;;;9.57;100.00;100136.44;4967623;28;20038;-69
2022/05/04 01:45:53;;;;;;;6.28;5.68;;;;;;;9.25;100.00;100095.69;4966252;28;20034;-68
2022/05/04 01:48:19;;;;;;;7.30;5.68;;;;;;;9.62;100.00;100157.47;4971424;28;20139;-68
2022/05/04 01:50:45;;;;;;;7.72;6.57;;;;;;;9.65;100.00;100142.19;4954010;29;20105;-68
2022/05/04 01:53:10;;;;;;;6.90;6.20;;;;;;;9.26;100.00;100082.13;4953858;28;20026;-68
2022/05/04 01:55:36;;;;;;;7.13;6.40;;;;;;;9.42;100.00;100141.84;4953662;28;20032;-68
2022/05/04 01:58:02;;;;;;;6.95;6.28;;;;;;;9.89;100.00;100135.72;4954156;28;20421;-68
2022/05/04 02:00:28;;;;;;;7.25;6.07;;;;;;;9.40;100.00;100082.69;4952555;29;20028;-68
2022/05/04 02:02:54;;;;;;;8.32;6.53;;;;;;;9.47;100.00;100087.59;4959451;28;20043;-68
2022/05/04 02:05:21;;;;;;;7.75;6.68;;;;;;;9.80;100.00;100088.53;4953816;28;20142;-68
2022/05/04 02:07:48;;;;;;;7.60;6.80;;;;;;;9.66;100.00;100140.47;4952296;28;20082;-68
2022/05/04 02:10:14;;;;;;;7.68;6.60;;;;;;;9.95;100.00;100138.13;4953835;28;20035;-68
2022/05/04 02:12:39;;;;;;;7.07;6.38;;;;;;;9.93;100.00;100089.91;4952396;28;20042;-68
2022/05/04 02:15:06;;;;;;;7.93;5.70;;;;;;;9.97;100.00;100090.66;4970355;28;20084;-68
2022/05/04 02:17:32;;;;;;;8.18;6.72;;;;;;;9.87;100.00;100084.97;4970696;28;20038;-68
2022/05/04 02:19:57;;;;;;;7.85;6.93;;;;;;;10.17;100.00;100132.56;4960815;28;20035;-68
2022/05/04 02:22:23;;;;;;;7.82;6.30;;;;;;;10.03;100.00;100136.25;4956676;28;20035;-68
2022/05/04 02:24:48;;;;;;;7.88;7.07;;;;;;;9.98;100.00;100099.97;4953609;28;20497;-68
2022/05/04 02:27:13;;;;;;;6.97;6.22;;;;;;;10.21;100.00;100135.84;4952083;29;20042;-68
2022/05/04 02:29:39;;;;;;;8.35;7.53;;;;;;;10.24;100.00;100136.59;4953373;28;20027;-68
2022/05/04 02:32:05;;;;;;;8.80;7.47;;;;;;;10.13;100.00;100125.88;4953541;28;20038;-68
2022/05/04 02:34:30;;;;;;;7.70;6.93;;;;;;;9.84;100.00;100090.16;4953373;28;20421;-68
2022/05/04 02:39:40;;;;;;;8.50;6.97;;;;;;;9.67;100.00;100071.91;4972816;28;20042;-68
2022/05/04 02:42:06;;;;;;;8.23;7.43;;;;;;;9.92;100.00;100121.28;4971087;28;20022;-67
2022/05/04 02:44:31;;;;;;;7.93;6.90;;;;;;;9.75;100.00;100136.03;4953146;28;20035;-68
2022/05/04 02:46:57;;;;;;;8.68;7.03;;;;;;;9.65;100.00;100106.63;4953418;28;20090;-68
2022/05/04 02:49:22;;;;;;;7.40;6.70;;;;;;;9.71;100.00;100144.59;4952603;29;20402;-68
2022/05/04 02:51:47;;;;;;;8.38;7.35;;;;;;;10.07;100.00;100140.38;4955400;28;20038;-68
2022/05/04 02:54:13;;;;;;;7.60;6.90;;;;;;;9.51;100.00;100040.97;4953101;28;20461;-68
2022/05/04 02:56:39;;;;;;;8.68;7.38;;;;;;;9.45;100.00;100089.31;4952869;28;20027;-67
2022/05/04 02:59:04;;;;;;;7.50;6.70;;;;;;;9.78;100.00;100147.84;4951618;29;20031;-68
2022/05/04 03:04:13;;;;;;;7.70;6.93;;;;;;;9.74;100.00;100148.75;4955255;28;20057;-68
2022/05/04 03:06:40;;;;;;;7.95;6.20;;;;;;;9.47;100.00;100109.56;4963908;28;20039;-68
2022/05/04 03:09:08;;;;;;;8.68;7.78;;;;;;;9.58;100.00;100102.59;4951276;28;20055;-68
2022/05/04 03:14:18;;;;;;;26.77;18.00;;;;;;;9.34;100.00;100148.78;4952297;29;20042;-68
2022/05/04 03:16:44;;;;;;;12.52;9.98;;;;;;;9.21;100.00;100086.47;4952893;28;20031;-68
2022/05/04 03:19:10;;;;;;;11.60;8.63;;;;;;;9.49;100.00;100149.28;4954535;28;20126;-68
2022/05/04 03:21:35;;;;;;;8.75;7.75;;;;;;;9.28;100.00;100105.75;4958403;28;20023;-68
2022/05/04 03:24:01;;;;;;;14.98;12.48;;;;;;;9.55;100.00;100144.09;4958450;28;20041;-68
2022/05/04 03:26:27;;;;;;;11.10;9.10;;;;;;;9.61;100.00;100153.25;4952896;28;20394;-68
2022/05/04 03:28:53;;;;;;;11.65;9.88;;;;;;;9.11;100.00;100115.44;4952018;28;20037;-69
2022/05/04 03:31:19;;;;;;;12.15;10.82;;;;;;;9.49;100.00;100173.81;4952486;28;20034;-68
2022/05/04 03:33:45;;;;;;;16.38;14.70;;;;;;;9.18;100.00;100137.25;4951267;28;20031;-68
2022/05/04 03:36:11;;;;;;;10.60;9.50;;;;;;;9.09;100.00;100122.22;4952558;28;20519;-69
2022/05/04 03:38:36;;;;;;;7.78;6.97;;;;;;;9.46;100.00;100189.97;4971618;28;20031;-68
2022/05/04 03:41:01;;;;;;;10.23;9.27;;;;;;;9.02;100.00;100136.72;4972048;28;20509;-68
2022/05/04 03:43:27;;;;;;;9.57;8.27;;;;;;;9.35;100.00;100184.25;4971358;28;20089;-68
2022/05/04 03:45:53;;;;;;;11.43;9.18;;;;;;;9.10;100.00;100146.72;4971817;28;20122;-68
2022/05/04 03:48:19;;;;;;;9.25;8.00;;;;;;;9.28;100.00;100171.72;4971768;28;20094;-68
2022/05/04 03:50:46;;;;;;;9.60;8.60;;;;;;;9.61;100.00;100186.25;4971438;28;20035;-68
2022/05/04 03:53:12;;;;;;;12.07;8.43;;;;;;;9.55;100.00;100179.59;4970931;28;20031;-68
2022/05/04 03:55:38;;;;;;;10.98;8.90;;;;;;;9.38;100.00;100127.53;4971538;28;20042;-68
2022/05/04 03:58:03;;;;;;;9.98;8.55;;;;;;;9.57;100.00;100157.56;4971574;28;20034;-68
2022/05/04 04:00:29;;;;;;;10.23;8.40;;;;;;;9.61;100.00;100183.72;4971978;28;20034;-68
2022/05/04 04:02:54;;;;;;;10.95;9.85;;;;;;;9.32;100.00;100118.38;4971534;28;20051;-68
2022/05/04 04:05:20;;;;;;;11.60;9.27;;;;;;;9.13;100.00;100149.22;4971430;28;20023;-67
2022/05/04 04:07:45;;;;;;;10.77;9.00;;;;;;;9.22;100.00;100114.34;4971456;28;20023;-67
2022/05/04 04:10:11;;;;;;;9.82;8.75;;;;;;;9.56;100.00;100204.13;4971452;28;20034;-67
2022/05/04 04:12:36;;;;;;;11.00;9.13;;;;;;;9.36;100.00;100196.09;4969680;28;20424;-68
2022/05/04 04:15:02;;;;;;;10.52;9.23;;;;;;;9.49;100.00;100205.09;4970346;28;20097;-67
2022/05/04 04:17:29;;;;;;;10.30;9.00;;;;;;;9.69;100.00;100204.69;4971544;28;20117;-68
2022/05/04 04:22:41;;;;;;;10.43;9.43;;;;;;;9.70;100.00;100198.78;4954403;28;20511;-67
2022/05/04 04:25:06;;;;;;;11.50;10.02;;;;;;;9.45;100.00;100164.59;4974747;28;20042;-68
2022/05/04 04:27:33;;;;;;;11.02;9.93;;;;;;;9.91;100.00;100198.31;4975138;28;20026;-67
2022/05/04 04:29:59;;;;;;;9.65;8.65;;;;;;;9.40;100.00;100214.63;4974775;28;20031;-67
2022/05/04 04:32:24;;;;;;;8.73;7.82;;;;;;;8.95;100.00;100150.41;4974712;28;20558;-67
2022/05/04 04:34:50;;;;;;;9.93;8.43;;;;;;;8.99;100.00;100151.16;4973579;28;20037;-67
2022/05/04 04:37:16;;;;;;;11.98;8.02;;;;;;;9.27;100.00;100216.53;4973569;28;20409;-68
2022/05/04 04:39:41;;;;;;;9.32;8.40;;;;;;;9.63;100.00;100214.16;4972957;28;20047;-67
2022/05/04 04:42:07;;;;;;;9.90;8.68;;;;;;;9.25;100.00;100204.78;4973318;28;20037;-67
2022/05/04 04:44:32;;;;;;;9.90;8.93;;;;;;;9.93;100.00;100228.75;4974798;28;20469;-67
2022/05/04 04:46:58;;;;;;;13.43;9.55;;;;;;;10.01;100.00;100222.63;4974562;28;20053;-67
2022/05/04 04:49:25;;;;;;;9.52;8.43;;;;;;;9.75;100.00;100163.13;4973273;28;20051;-67
2022/05/04 04:51:50;;;;;;;10.23;9.20;;;;;;;9.90;100.00;100150.94;4974386;28;20026;-67
2022/05/04 04:54:16;;;;;;;9.88;8.88;;;;;;;9.89;100.00;100172.13;4972985;28;20038;-67
2022/05/04 04:56:41;;;;;;;9.57;8.57;;;;;;;10.00;100.00;100138.88;4974284;28;20034;-67
2022/05/04 04:59:07;;;;;;;11.23;9.00;;;;;;;10.32;100.00;100188.06;4974464;28;20038;-67
2022/05/04 05:01:32;;;;;;;9.88;8.88;;;;;;;10.17;100.00;100206.22;4973168;28;20027;-67
2022/05/04 05:03:57;;;;;;;9.88;8.60;;;;;;;10.17;100.00;100213.84;4966681;28;20504;-67
2022/05/04 05:06:24;;;;;;;10.10;9.10;;;;;;;9.98;100.00;100207.44;4954883;28;20035;-67
2022/05/04 05:08:50;;;;;;;10.10;8.40;;;;;;;10.87;100.00;100210.47;4954717;28;20027;-67
2022/05/04 05:11:15;;;;;;;9.60;8.68;;;;;;;11.54;100.00;100212.03;4955743;28;20028;-67
2022/05/04 05:16:25;;;;;;;8.85;7.90;;;;;;;11.30;100.00;100222.88;4954777;28;20086;-67
2022/05/04 05:18:50;;;;;;;9.05;7.90;;;;;;;10.72;100.00;100177.75;4953382;28;20027;-67
2022/05/04 05:21:16;;;;;;;8.60;7.72;;;;;;;10.88;100.00;100232.44;4954667;29;20067;-67
2022/05/04 05:23:41;;;;;;;8.70;7.72;;;;;;;11.62;100.00;100248.28;4960676;28;20039;-67
2022/05/04 05:26:07;;;;;;;8.10;7.30;;;;;;;11.35;100.00;100124.31;4969251;28;20045;-66
2022/05/04 05:28:32;;;;;;;7.57;6.88;;;;;;;11.83;100.00;100234.13;4973885;28;20035;-67
2022/05/04 05:30:58;;;;;;;8.15;7.13;;;;;;;12.17;100.00;100240.75;4971498;28;20069;-67
2022/05/04 05:33:23;;;;;;;7.38;6.68;;;;;;;11.41;100.00;100197.94;4972339;28;20026;-66
2022/05/04 05:35:49;;;;;;;8.43;7.18;;;;;;;11.56;100.00;100232.34;4973747;28;20053;-67
2022/05/04 05:38:14;;;;;;;7.15;6.45;;;;;;;11.47;100.00;100250.44;4973605;28;20080;-67
2022/05/04 05:40:40;;;;;;;9.48;7.25;;;;;;;11.76;100.00;100241.13;4973543;28;20504;-69
2022/05/04 05:43:05;;;;;;;9.02;7.13;;;;;;;12.09;100.00;100242.69;4973821;28;20035;-69
2022/05/04 05:45:30;;;;;;;8.00;6.78;;;;;;;11.85;100.00;100240.00;4973516;28;20463;-68
2022/05/04 05:47:56;;;;;;;7.65;6.70;;;;;;;11.73;100.00;100179.22;4984862;28;20031;-68
2022/05/04 05:50:21;;;;;;;7.60;6.90;;;;;;;11.57;100.00;100239.94;4959829;28;20114;-68
2022/05/04 05:52:47;;;;;;;7.72;6.90;;;;;;;12.23;100.00;100231.22;4953812;28;20069;-68
2022/05/04 05:55:12;;;;;;;7.13;6.05;;;;;;;11.76;100.00;100190.19;4954173;28;20027;-68
2022/05/04 05:57:38;;;;;;;7.78;6.45;;;;;;;12.24;100.00;100203.13;4953756;28;20034;-67
2022/05/04 06:00:05;;;;;;;8.00;7.25;;;;;;;12.47;100.00;100223.66;4953985;28;20478;-67
2022/05/04 06:02:33;;;;;;;7.40;6.70;;;;;;;12.62;100.00;100278.44;4963302;28;20046;-67
2022/05/04 06:04:58;;;;;;;6.90;6.28;;;;;;;12.59;100.00;100266.63;4970800;28;20085;-67
2022/05/04 06:07:24;;;;;;;8.05;6.82;;;;;;;12.81;100.00;100261.69;4972263;28;20457;-67
2022/05/04 06:09:50;;;;;;;7.13;6.05;;;;;;;12.22;100.00;100276.31;4973149;28;20030;-68
2022/05/04 06:12:16;;;;;;;6.60;5.47;;;;;;;12.60;100.00;100267.44;4971565;28;20039;-67
2022/05/04 06:14:41;;;;;;;7.38;6.40;;;;;;;11.99;100.00;100271.88;4971806;28;20022;-67
2022/05/04 06:17:07;;;;;;;6.65;5.97;;;;;;;12.79;100.00;100258.34;4972883;28;20037;-67
2022/05/04 06:19:32;;;;;;;7.47;5.60;;;;;;;12.87;100.00;100224.03;4972928;28;20390;-70
2022/05/04 06:21:58;;;;;;;7.80;6.10;;;;;;;12.83;100.00;100224.19;4971381;28;20509;-67
2022/05/04 06:24:25;;;;;;;6.63;6.00;;;;;;;12.88;100.00;100219.75;4972933;28;20118;-68
2022/05/04 06:26:51;;;;;;;8.05;6.15;;;;;;;13.28;100.00;100285.63;4972893;28;20037;-68
2022/05/04 06:29:16;;;;;;;8.95;6.00;;;;;;;13.17;100.00;100257.09;4970666;28;20081;-67
2022/05/04 06:34:25;;;;;;;7.03;5.35;;;;;;;13.31;100.00;100295.78;4972459;28;20046;-68
2022/05/04 06:36:51;;;;;;;7.63;5.82;;;;;;;13.12;100.00;100252.16;4972280;28;20031;-68
2022/05/04 06:39:16;;;;;;;10.60;6.38;;;;;;;13.13;100.00;100223.19;4972381;28;20430;-68
2022/05/04 06:41:42;;;;;;;9.45;6.45;;;;;;;14.18;100.00;100294.31;4971450;28;20027;-69
2022/05/04 06:44:08;;;;;;;22.52;15.32;;;;;;;14.12;100.00;100251.91;4972488;28;20477;-68
2022/05/04 06:46:41;;;;;;;9.00;7.25;;;;;;;14.30;100.00;100292.13;4972445;28;20031;-68
2022/05/04 06:49:09;;;;;;;5.90;4.60;;;;;;;13.05;100.00;100258.34;4972139;28;20078;-68
2022/05/04 06:51:35;;;;;;;10.02;6.35;;;;;;;15.26;100.00;100310.44;4971042;28;20436;-69
2022/05/04 06:54:00;;;;;;;6.38;4.78;;;;;;;14.66;100.00;100310.34;4971873;28;20039;-68
2022/05/04 06:56:26;;;;;;;7.00;4.90;;;;;;;14.13;100.00;100271.47;4958989;28;20406;-67
2022/05/04 06:58:51;;;;;;;7.00;5.43;;;;;;;15.05;100.00;100255.00;4952804;28;20443;-67
2022/05/04 07:01:16;;;;;;;9.77;6.40;;;;;;;15.51;100.00;100323.91;4952923;28;20024;-67
2022/05/04 07:03:42;;;;;;;9.30;5.07;;;;;;;15.55;100.00;100266.50;4952593;28;20059;-67
2022/05/04 07:06:07;;;;;;;7.85;6.10;;;;;;;14.64;100.00;100273.75;4952748;28;20028;-67
2022/05/04 07:08:34;;;;;;;6.15;5.18;;;;;;;15.03;100.00;100282.41;4953022;28;20481;-67
2022/05/04 07:11:00;;;;;;;6.75;4.82;;;;;;;15.46;100.00;100291.69;4952658;29;20058;-67
2022/05/04 07:13:26;;;;;;;5.05;4.53;;;;;;;15.27;100.00;100296.72;4952725;28;20027;-68
2022/05/04 07:15:53;;;;;;;5.00;4.50;;;;;;;14.26;100.00;100331.47;4951640;29;20031;-67
2022/05/04 07:18:18;;;;;;;7.38;5.28;;;;;;;14.53;100.00;100329.66;4952143;28;20023;-68
2022/05/04 07:20:43;;;;;;;4.78;4.35;;;;;;;14.67;100.00;100292.41;4952250;29;20027;-67
2022/05/04 07:23:09;;;;;;;6.88;4.50;;;;;;;14.65;100.00;100281.38;4952272;28;20478;-67
2022/05/04 07:25:34;;;;;;;7.22;4.20;;;;;;;14.36;100.00;100268.88;4952175;28;20031;-67
2022/05/04 07:28:00;;;;;;;5.25;4.75;;;;;;;14.59;100.00;100245.81;4952339;29;20043;-67
2022/05/04 07:30:26;;;;;;;6.90;5.07;;;;;;;14.91;100.00;100275.22;4952158;28;20035;-67
2022/05/04 07:32:51;;;;;;;6.75;4.97;;;;;;;14.99;100.00;100321.84;4951970;28;20430;-68
2022/05/04 07:35:17;;;;;;;8.52;5.00;;;;;;;14.98;100.00;100279.19;4952378;28;20122;-67
2022/05/04 07:37:43;;;;;;;5.05;4.07;;;;;;;14.86;100.00;100318.06;4952614;29;20457;-67
2022/05/04 07:42:54;;;;;;;6.07;4.18;;;;;;;15.42;100.00;100326.88;4952431;28;20071;-67
2022/05/04 07:45:19;;;;;;;9.48;6.20;;;;;;;15.74;100.00;100316.97;4952223;28;20028;-67
2022/05/04 07:47:46;;;;;;;7.85;4.30;;;;;;;16.26;100.00;100335.09;4952485;29;20122;-67
2022/05/04 07:50:11;;;;;;;5.63;3.50;;;;;;;15.89;100.00;100344.50;4952441;28;20035;-67
2022/05/04 07:52:37;;;;;;;9.95;4.25;;;;;;;15.41;100.00;100302.09;4950999;28;20097;-67
2022/05/04 07:55:03;;;;;;;6.18;4.28;;;;;;;15.36;100.00;100296.34;4956387;28;20038;-67
2022/05/04 07:57:29;;;;;;;7.97;4.72;;;;;;;15.38;100.00;100292.00;4956221;28;20039;-67
2022/05/04 08:05:24;;;;;;;8.82;5.53;;;;;;;16.57;100.00;100323.44;4956044;28;20086;-67
2022/05/04 08:07:50;;;;;;;10.25;4.88;;;;;;;15.89;100.00;100285.50;4956394;28;20039;-67
2022/05/04 08:10:16;;;;;;;8.07;5.10;;;;;;;16.17;100.00;100307.28;4955940;29;20031;-67
2022/05/04 08:12:42;;;;;;;11.30;5.45;;;;;;;15.81;100.00;100290.97;4955671;28;20085;-67
2022/05/04 08:15:08;;;;;;;8.77;5.22;;;;;;;16.05;100.00;100289.06;4957442;28;20255;-67
2022/05/04 08:17:33;;;;;;;14.25;5.80;;;;;;;16.44;100.00;100334.25;4972381;28;20050;-68
2022/05/04 08:19:59;;;;;;;10.70;6.05;;;;;;;16.38;100.00;100336.28;4974881;28;21382;-68
2022/05/04 08:22:25;;;;;;;9.80;4.40;;;;;;;16.32;100.00;100318.59;4960661;28;20489;-67
2022/05/04 08:24:51;;;;;;;12.05;6.07;;;;;;;15.92;100.00;100309.31;4969261;28;20027;-68
2022/05/04 08:27:17;;;;;;;7.47;4.43;;;;;;;16.43;100.00;100339.47;4975228;28;20122;-67
2022/05/04 08:29:44;;;;;;;6.72;4.15;;;;;;;15.93;100.00;100302.44;4975109;28;20074;-67
2022/05/04 08:32:10;;;;;;;6.13;4.50;;;;;;;16.29;100.00;100344.38;4974945;28;20031;-67
2022/05/04 08:34:36;;;;;;;8.27;5.03;;;;;;;16.29;100.00;100342.66;4975092;28;20476;-67
2022/05/04 08:37:01;;;;;;;6.43;4.80;;;;;;;16.08;100.00;100309.44;4974921;28;20027;-67
2022/05/04 08:39:26;;;;;;;9.15;5.43;;;;;;;16.16;100.00;100353.56;4974625;28;20030;-68
2022/05/04 08:41:52;;;;;;;10.60;5.93;;;;;;;16.19;100.00;100341.41;4975165;28;20050;-67
2022/05/04 08:44:19;;;;;;;13.02;5.63;;;;;;;15.80;100.00;100332.09;4974713;28;20023;-66
2022/05/04 08:46:44;;;;;;;8.95;5.45;;;;;;;15.84;100.00;100305.41;4974903;28;20042;-66
2022/05/04 08:49:12;;;;;;;5.90;4.60;;;;;;;15.78;100.00;100341.56;4974560;28;20405;-66
2022/05/04 08:51:39;;;;;;;8.45;6.40;;;;;;;15.61;100.00;100286.72;4974663;28;20042;-67
2022/05/04 08:54:06;;;;;;;6.88;5.00;;;;;;;15.42;100.00;100293.56;4972147;28;20493;-67
2022/05/04 08:56:33;;;;;;;10.45;6.93;;;;;;;15.60;100.00;100354.28;4969717;28;20035;-67
2022/05/04 08:59:01;;;;;;;14.27;8.90;;;;;;;15.69;100.00;100327.41;4972970;28;20041;-67
2022/05/04 09:01:26;;;;;;;16.40;10.43;;;;;;;15.48;100.00;100307.84;4972747;28;20582;-67
2022/05/04 09:03:52;;;;;;;16.08;10.68;;;;;;;15.54;100.00;100300.72;4973238;28;20055;-67
2022/05/04 09:06:29;;;;;;;15.65;10.27;;;;;;;16.21;100.00;100356.72;4971942;28;20035;-67
2022/05/04 09:09:10;;;;;;;7.15;6.28;;;;;;;16.39;100.00;100346.47;4972532;28;20532;-68
2022/05/04 09:11:40;;;;;;;11.77;6.60;;;;;;;16.32;100.00;100280.91;4958445;28;20027;-68
2022/05/04 09:14:11;;;;;;;12.93;9.65;;;;;;;16.35;100.00;100287.66;4968747;28;20067;-67
2022/05/04 09:16:37;;;;;;;12.77;8.18;;;;;;;16.66;100.00;100328.97;4952866;28;20378;-67
2022/05/04 09:19:12;;;;;;;7.10;5.90;;;;;;;17.01;100.00;100335.84;4954548;28;20031;-68
2022/05/04 09:21:39;;;;;;;8.60;6.22;;;;;;;17.93;100.00;100341.44;4969350;28;20030;-67
2022/05/04 09:24:05;;;;;;;8.43;6.72;;;;;;;18.11;100.00;100337.06;4977492;28;20073;-67
2022/05/04 09:26:31;;;;;;;11.27;6.35;;;;;;;19.89;100.00;100325.09;4976230;28;20481;-68
2022/05/04 09:28:59;;;;;;;6.97;5.30;;;;;;;19.19;100.00;100290.66;4974023;28;20036;-69
2022/05/04 09:31:30;;;;;;;6.50;5.45;;;;;;;18.80;100.00;100330.69;4974057;28;20085;-69
2022/05/04 09:34:07;;;;;;;6.00;5.45;;;;;;;19.40;100.00;100325.53;4968572;28;20141;-69
2022/05/04 09:36:35;;;;;;;8.88;6.55;;;;;;;19.59;100.00;100305.50;4954463;29;20027;-68
2022/05/04 09:44:55;;;;;;;6.85;6.10;;;;;;;20.40;99.69;100302.19;4973438;28;20070;-68
2022/05/04 09:47:21;;;;;;;7.45;4.10;;;;;;;18.93;98.99;100290.44;4973335;28;20030;-68
2022/05/04 09:49:48;;;;;;;5.03;4.53;;;;;;;19.60;100.00;100320.03;4973593;28;20069;-68
2022/05/04 09:52:22;;;;;;;5.90;5.30;;;;;;;18.74;100.00;100276.91;4973485;28;20038;-68
2022/05/04 09:54:47;;;;;;;6.63;5.20;;;;;;;18.94;100.00;100332.47;4973162;28;20045;-67
2022/05/04 09:57:13;;;;;;;5.55;4.47;;;;;;;18.50;100.00;100268.00;4973441;28;20035;-67
2022/05/04 09:59:42;;;;;;;8.75;4.05;;;;;;;19.61;100.00;100319.94;4972002;28;20026;-68
2022/05/04 10:02:09;;;;;;;5.43;4.53;;;;;;;19.96;100.00;100306.66;4973281;28;20058;-67
2022/05/04 10:04:36;;;;;;;4.40;4.00;;;;;;;18.91;100.00;100220.13;4971868;28;20031;-67
2022/05/04 10:07:03;;;;;;;4.70;4.25;;;;;;;20.44;100.00;100314.78;4973009;28;20061;-67
2022/05/04 10:09:29;;;;;;;6.70;4.78;;;;;;;19.72;100.00;100298.66;4971955;28;20046;-67
2022/05/04 10:11:59;;;;;;;8.55;4.10;;;;;;;20.21;100.00;100234.53;4973395;28;20031;-66
2022/05/04 10:14:27;;;;;;;6.85;4.70;;;;;;;20.01;100.00;100307.19;4966575;28;20031;-67
2022/05/04 10:16:55;;;;;;;5.47;4.65;;;;;;;19.47;100.00;100317.34;4953585;28;20140;-66
2022/05/04 10:19:25;;;;;;;6.15;4.05;;;;;;;18.99;100.00;100248.00;4955209;28;20034;-66
2022/05/04 10:21:55;;;;;;;4.35;3.60;;;;;;;19.30;100.00;100303.75;4953587;28;20062;-66
2022/05/04 10:24:22;;;;;;;5.10;4.45;;;;;;;18.81;100.00;100279.97;4953657;28;20024;-66
2022/05/04 10:26:48;;;;;;;6.80;4.03;;;;;;;18.83;100.00;100268.69;4952260;28;20035;-66
2022/05/04 10:32:46;;;;;;;5.70;4.25;;;;;;;18.79;100.00;100292.97;4932341;29;20117;-66
2022/05/04 10:35:20;;;;;;;4.82;4.03;;;;;;;18.45;100.00;100298.31;4951742;28;20118;-69
2022/05/04 10:37:57;;;;;;;5.85;4.07;;;;;;;18.85;100.00;100230.78;4953395;29;20535;-69
2022/05/04 10:40:37;;;;;;;4.00;3.60;;;;;;;18.33;100.00;100255.19;4960687;28;20045;-69
2022/05/04 10:43:13;;;;;;;15.25;9.73;;;;;;;18.85;100.00;100287.47;4972189;28;20121;-69
2022/05/04 10:45:43;;;;;;;4.57;4.18;;;;;;;19.17;100.00;100221.16;4971731;28;20125;-68
2022/05/04 10:48:20;;;;;;;5.85;4.88;;;;;;;20.15;98.03;100274.44;4971983;28;20042;-69
2022/05/04 10:50:50;;;;;;;5.30;3.92;;;;;;;20.13;90.66;100218.66;4972069;28;20035;-69
2022/05/04 10:53:25;;;;;;;4.95;3.55;;;;;;;20.26;90.98;100271.25;4972200;28;20066;-69
2022/05/04 10:56:07;;;;;;;5.07;3.63;;;;;;;21.12;86.56;100260.41;4972164;28;20027;-69
2022/05/04 10:58:51;;;;;;;6.88;3.80;;;;;;;21.12;86.17;100263.00;4970268;28;20026;-68
2022/05/04 11:01:25;;;;;;;3.92;3.20;;;;;;;19.18;94.32;100227.97;4971499;28;20061;-69
2022/05/04 11:04:09;;;;;;;3.85;3.55;;;;;;;20.13;90.71;100275.47;4969627;28;20043;-68
2022/05/04 11:06:42;;;;;;;4.45;3.20;;;;;;;19.95;86.96;100264.53;4971631;28;20031;-72
2022/05/04 11:09:10;;;;;;;6.30;3.55;;;;;;;20.02;91.31;100164.31;4969334;28;20046;-70
2022/05/04 11:11:40;;;;;;;7.57;3.67;;;;;;;20.56;87.17;100202.13;4971862;28;20035;-69
2022/05/04 11:14:07;;;;;;;5.65;3.30;;;;;;;21.08;81.79;100261.53;4971815;28;20106;-69
2022/05/04 11:16:33;;;;;;;5.40;3.30;;;;;;;22.00;76.55;100248.25;4970717;28;20038;-68
2022/05/04 11:19:00;;;;;;;9.05;4.63;;;;;;;20.94;81.21;100215.06;4972159;28;20086;-69
2022/05/04 11:21:28;;;;;;;7.15;3.25;;;;;;;21.48;78.86;100191.50;4972021;28;20049;-69
2022/05/04 11:23:56;;;;;;;5.10;3.17;;;;;;;20.96;78.82;100201.09;4971786;28;20201;-69
2022/05/04 11:26:25;;;;;;;4.00;3.55;;;;;;;21.48;77.95;100255.34;4971602;28;20114;-70
2022/05/04 11:28:52;;;;;;;4.82;3.20;;;;;;;19.49;78.75;100123.81;4965136;28;20437;-70
2022/05/04 11:31:19;;;;;;;5.28;3.17;;;;;;;21.50;81.62;100240.53;4971742;28;20034;-70
2022/05/04 11:33:47;;;;;;;8.30;2.83;;;;;;;21.75;77.39;100226.75;4970593;28;20121;-70
2022/05/04 11:36:13;;;;;;;7.22;3.00;;;;;;;21.56;79.71;100245.31;4970520;28;20035;-68
2022/05/04 11:38:39;;;;;;;4.65;3.33;;;;;;;20.64;82.19;100231.66;4971661;28;20027;-67
2022/05/04 11:41:05;;;;;;;3.80;3.40;;;;;;;21.08;81.62;100251.19;4971095;28;20045;-68
2022/05/04 11:43:35;;;;;;;7.13;2.80;;;;;;;21.22;75.24;100143.31;4970722;28;20038;-69
2022/05/04 11:46:06;;;;;;;6.93;3.08;;;;;;;22.03;75.01;100229.88;4969468;28;20429;-68
2022/05/04 11:48:32;;;;;;;5.00;3.72;;;;;;;22.00;72.44;100231.88;4970361;28;20035;-69
2022/05/04 11:50:58;;;;;;;4.10;2.95;;;;;;;21.60;72.56;100176.88;4970767;28;20047;-68
2022/05/04 11:53:23;;;;;;;4.05;2.88;;;;;;;21.13;74.62;100176.75;4970619;28;20030;-68